Time;durP1;ratioP1;P1;durP2;ratioP2;P2;SDS_P1;SDS_P2;PMS_P1;PMS_P2;Temp;Humidity;BMP_temperature;BMP_pressure;BME280_temperature;BME280_humidity;BME280_pressure;Samples;Min_cycle;Max_cycle;Signal;HPM_P1;HPM_P2
2024/02/23 00:02:59;;;;;;;20.40;11.47;;;;;;;;;;6141149;29;20540;-62
2024/02/23 00:06:03;;;;;;;32.47;12.17;;;;;;;;;;6141508;29;20307;-62
2024/02/23 00:09:07;;;;;;;24.23;12.33;;;;;;;;;;6141191;29;20294;-62
2024/02/23 00:12:11;;;;;;;25.30;12.53;;;;;;;;;;6118316;29;20299;-62
2024/02/23 00:15:16;;;;;;;23.10;11.83;;;;;;;;;;6117105;29;20587;-62
2024/02/23 00:18:20;;;;;;;23.83;12.30;;;;;;;;;;6117070;29;20435;-62
2024/02/23 00:21:24;;;;;;;28.17;13.03;;;;;;;;;;6117538;29;20311;-62
2024/02/23 00:24:28;;;;;;;27.00;13.57;;;;;;;;;;6117079;29;20571;-62
2024/02/23 00:27:39;;;;;;;28.20;14.00;;;;;;;;;;6116384;29;20599;-62
2024/02/23 00:30:45;;;;;;;25.57;12.80;;;;;;;;;;6117251;29;20295;-62
2024/02/23 00:33:48;;;;;;;35.50;13.73;;;;;;;;;;6116826;29;20304;-62
2024/02/23 00:36:52;;;;;;;34.33;14.47;;;;;;;;;;6117055;29;20307;-62
2024/02/23 00:39:56;;;;;;;31.23;14.57;;;;;;;;;;6116879;29;20304;-62
2024/02/23 00:43:02;;;;;;;31.85;14.27;;;;;;;;;;6116539;29;20304;-62
2024/02/23 00:46:08;;;;;;;36.00;14.80;;;;;;;;;;6116725;29;20495;-62
2024/02/23 00:49:12;;;;;;;29.65;14.57;;;;;;;;;;6116371;29;20300;-62
2024/02/23 00:52:17;;;;;;;30.47;14.97;;;;;;;;;;6116698;29;20300;-62
2024/02/23 00:55:21;;;;;;;28.55;14.98;;;;;;;;;;6127565;29;20295;-62
2024/02/23 00:58:25;;;;;;;30.23;14.65;;;;;;;;;;6139871;29;20295;-62
2024/02/23 01:01:32;;;;;;;36.00;15.23;;;;;;;;;;6139991;29;20511;-62
2024/02/23 01:04:35;;;;;;;35.53;15.93;;;;;;;;;;6139233;29;20540;-62
2024/02/23 01:07:39;;;;;;;32.97;15.47;;;;;;;;;;6139390;29;20556;-62
2024/02/23 01:10:43;;;;;;;32.47;14.90;;;;;;;;;;6128587;29;20295;-62
2024/02/23 01:13:47;;;;;;;28.57;14.47;;;;;;;;;;6115559;29;20303;-62
2024/02/23 01:16:52;;;;;;;32.87;14.57;;;;;;;;;;6115556;29;20561;-62
2024/02/23 01:19:56;;;;;;;29.85;14.43;;;;;;;;;;6115465;29;20608;-62
2024/02/23 01:23:00;;;;;;;23.93;13.57;;;;;;;;;;6115225;29;20295;-62
2024/02/23 01:26:04;;;;;;;28.80;14.23;;;;;;;;;;6115877;29;20252;-63
2024/02/23 01:29:08;;;;;;;24.93;13.00;;;;;;;;;;6115162;29;20299;-62
2024/02/23 01:32:13;;;;;;;26.13;13.53;;;;;;;;;;6115436;29;20307;-62
2024/02/23 01:35:17;;;;;;;25.50;12.90;;;;;;;;;;6114897;29;20302;-62
2024/02/23 01:38:22;;;;;;;20.67;12.17;;;;;;;;;;6115061;29;20311;-60
2024/02/23 01:41:26;;;;;;;20.70;11.67;;;;;;;;;;6115090;29;20319;-60
2024/02/23 01:44:29;;;;;;;21.47;13.23;;;;;;;;;;6114766;29;20302;-60
2024/02/23 01:47:35;;;;;;;22.80;12.83;;;;;;;;;;6114701;29;20299;-60
2024/02/23 01:50:40;;;;;;;24.83;12.88;;;;;;;;;;6115419;29;20305;-60
2024/02/23 01:53:44;;;;;;;23.77;13.37;;;;;;;;;;6117697;29;20291;-61
2024/02/23 01:56:48;;;;;;;29.73;13.87;;;;;;;;;;6139241;29;20306;-61
2024/02/23 01:59:52;;;;;;;26.47;14.07;;;;;;;;;;6138442;29;20299;-61
2024/02/23 02:02:58;;;;;;;29.73;14.63;;;;;;;;;;6121317;29;20474;-60
2024/02/23 02:06:02;;;;;;;30.20;14.80;;;;;;;;;;6138494;29;20295;-60
2024/02/23 02:09:06;;;;;;;29.27;14.30;;;;;;;;;;6138178;29;20571;-60
2024/02/23 02:12:10;;;;;;;29.80;14.80;;;;;;;;;;6116205;29;20495;-60
2024/02/23 02:15:14;;;;;;;26.47;14.23;;;;;;;;;;6114299;29;20311;-60
2024/02/23 02:18:19;;;;;;;32.80;14.70;;;;;;;;;;6114480;29;20463;-60
2024/02/23 02:21:25;;;;;;;27.23;13.80;;;;;;;;;;6114964;29;20307;-60
2024/02/23 02:24:29;;;;;;;25.42;12.75;;;;;;;;;;6114334;29;20394;-60
2024/02/23 02:27:32;;;;;;;23.90;14.57;;;;;;;;;;6114036;29;20315;-61
2024/02/23 02:30:36;;;;;;;28.70;13.57;;;;;;;;;;6114825;29;20303;-62
2024/02/23 02:33:42;;;;;;;23.90;13.17;;;;;;;;;;6114061;29;20296;-61
2024/02/23 02:36:46;;;;;;;24.33;12.60;;;;;;;;;;6119458;29;20583;-62
2024/02/23 02:39:50;;;;;;;21.90;12.95;;;;;;;;;;6118898;29;20447;-61
2024/02/23 02:42:54;;;;;;;18.67;11.47;;;;;;;;;;6118994;29;20296;-60
2024/02/23 02:45:58;;;;;;;21.30;12.32;;;;;;;;;;6119403;29;20576;-60
2024/02/23 02:49:03;;;;;;;24.30;13.53;;;;;;;;;;6118942;29;20295;-60
2024/02/23 02:52:08;;;;;;;24.57;13.77;;;;;;;;;;6119375;29;20299;-61
2024/02/23 02:55:12;;;;;;;27.77;13.75;;;;;;;;;;6132511;29;20390;-61
2024/02/23 02:58:16;;;;;;;29.02;14.85;;;;;;;;;;6142061;29;20298;-61
2024/02/23 03:01:19;;;;;;;28.30;14.57;;;;;;;;;;6142695;29;20302;-61
2024/02/23 03:04:25;;;;;;;28.90;14.97;;;;;;;;;;6142015;29;20483;-61
2024/02/23 03:07:28;;;;;;;23.95;13.57;;;;;;;;;;6141986;29;20413;-61
2024/02/23 03:10:32;;;;;;;21.70;13.03;;;;;;;;;;6133351;29;20295;-61
2024/02/23 03:13:36;;;;;;;19.27;11.10;;;;;;;;;;6118167;29;20306;-61
2024/02/23 03:16:40;;;;;;;17.48;11.30;;;;;;;;;;6119147;29;20295;-61
2024/02/23 03:19:45;;;;;;;17.93;10.90;;;;;;;;;;6118450;29;20371;-61
2024/02/23 03:22:50;;;;;;;19.00;10.90;;;;;;;;;;6116836;29;20552;-61
2024/02/23 03:25:55;;;;;;;14.07;9.87;;;;;;;;;;6117858;29;20272;-61
2024/02/23 03:28:59;;;;;;;13.60;9.70;;;;;;;;;;6117815;29;20595;-61
2024/02/23 03:32:03;;;;;;;16.80;9.80;;;;;;;;;;6118153;29;20436;-61
2024/02/23 03:35:09;;;;;;;13.80;9.70;;;;;;;;;;6117952;29;20311;-61
2024/02/23 03:38:13;;;;;;;16.17;10.13;;;;;;;;;;6117824;29;20299;-61
2024/02/23 03:41:17;;;;;;;17.60;10.33;;;;;;;;;;6117997;29;20306;-61
2024/02/23 03:44:21;;;;;;;16.53;10.97;;;;;;;;;;6117856;29;20561;-61
2024/02/23 03:47:25;;;;;;;19.90;11.50;;;;;;;;;;6117040;29;20312;-61
2024/02/23 03:50:31;;;;;;;17.47;11.03;;;;;;;;;;6117336;29;20303;-61
2024/02/23 03:53:35;;;;;;;21.10;11.33;;;;;;;;;;6118753;29;20308;-61
2024/02/23 03:56:41;;;;;;;21.70;12.10;;;;;;;;;;6141335;29;20294;-61
2024/02/23 03:59:52;;;;;;;25.33;13.47;;;;;;;;;;6140995;29;20295;-61
2024/02/23 04:02:56;;;;;;;25.87;13.27;;;;;;;;;;6121103;29;20299;-61
2024/02/23 04:06:02;;;;;;;29.53;14.83;;;;;;;;;;6134331;29;20295;-61
2024/02/23 04:09:07;;;;;;;25.07;13.83;;;;;;;;;;6117002;29;20303;-61
2024/02/23 04:12:12;;;;;;;30.77;13.47;;;;;;;;;;6137553;29;20411;-61
2024/02/23 04:15:16;;;;;;;19.95;11.95;;;;;;;;;;6140663;29;20302;-61
2024/02/23 04:18:19;;;;;;;26.73;12.30;;;;;;;;;;6139296;29;20315;-61
2024/02/23 04:21:25;;;;;;;29.07;12.43;;;;;;;;;;6117125;29;20300;-61
2024/02/23 04:24:29;;;;;;;24.67;12.53;;;;;;;;;;6116813;29;20302;-61
2024/02/23 04:27:33;;;;;;;27.03;12.87;;;;;;;;;;6116694;29;20394;-61
2024/02/23 04:30:37;;;;;;;24.30;12.73;;;;;;;;;;6117359;29;20618;-61
2024/02/23 04:33:41;;;;;;;24.00;13.40;;;;;;;;;;6116602;29;20311;-61
2024/02/23 04:36:46;;;;;;;22.93;11.93;;;;;;;;;;6128609;29;20471;-61
2024/02/23 04:39:50;;;;;;;24.50;13.10;;;;;;;;;;6140028;29;20308;-61
2024/02/23 04:42:54;;;;;;;23.77;11.25;;;;;;;;;;6140305;29;20294;-61
2024/02/23 04:45:58;;;;;;;18.07;10.20;;;;;;;;;;6140689;29;20397;-61
2024/02/23 04:49:03;;;;;;;17.60;9.37;;;;;;;;;;6140288;29;20481;-61
2024/02/23 04:52:08;;;;;;;12.20;7.37;;;;;;;;;;6140760;29;20302;-60
2024/02/23 04:55:13;;;;;;;9.17;6.93;;;;;;;;;;6125118;29;20305;-61
2024/02/23 04:58:17;;;;;;;8.70;7.28;;;;;;;;;;6115924;29;20306;-61
2024/02/23 05:01:20;;;;;;;8.57;7.03;;;;;;;;;;6116728;29;20308;-61
2024/02/23 05:04:26;;;;;;;11.10;7.30;;;;;;;;;;6116175;29;20299;-61
2024/02/23 05:07:32;;;;;;;10.57;7.10;;;;;;;;;;6115917;29;20572;-62
2024/02/23 05:10:36;;;;;;;8.53;7.23;;;;;;;;;;6125721;29;20304;-62
2024/02/23 05:13:41;;;;;;;9.75;7.88;;;;;;;;;;6139529;29;20579;-62
2024/02/23 05:16:45;;;;;;;13.13;8.00;;;;;;;;;;6139523;29;20351;-62
2024/02/23 05:19:49;;;;;;;12.33;8.63;;;;;;;;;;6139194;29;20311;-60
2024/02/23 05:22:54;;;;;;;14.33;9.30;;;;;;;;;;6138375;29;20295;-63
2024/02/23 05:25:58;;;;;;;11.87;8.50;;;;;;;;;;6139780;29;20244;-62
2024/02/23 05:29:02;;;;;;;13.67;8.20;;;;;;;;;;6138790;29;20351;-62
2024/02/23 05:32:06;;;;;;;14.77;9.27;;;;;;;;;;6139290;29;20251;-62
2024/02/23 05:35:11;;;;;;;16.80;9.17;;;;;;;;;;6138896;29;20318;-62
2024/02/23 05:38:17;;;;;;;24.63;9.80;;;;;;;;;;6138363;29;20306;-62
2024/02/23 05:41:21;;;;;;;22.80;9.87;;;;;;;;;;6137606;29;20299;-62
2024/02/23 05:44:25;;;;;;;19.00;9.90;;;;;;;;;;6138525;29;20570;-62
2024/02/23 05:47:29;;;;;;;18.17;9.37;;;;;;;;;;6138393;29;20307;-62
2024/02/23 05:50:33;;;;;;;18.10;9.97;;;;;;;;;;6138815;29;20322;-62
2024/02/23 05:53:38;;;;;;;17.77;10.15;;;;;;;;;;6136373;29;20303;-62
2024/02/23 05:56:42;;;;;;;16.87;9.80;;;;;;;;;;6115337;29;20307;-62
2024/02/23 05:59:46;;;;;;;14.13;9.00;;;;;;;;;;6114854;29;20311;-62
2024/02/23 06:02:50;;;;;;;17.63;9.67;;;;;;;;;;6114659;29;20312;-62
2024/02/23 06:05:54;;;;;;;21.17;10.60;;;;;;;;;;6115133;29;20308;-62
2024/02/23 06:09:02;;;;;;;18.37;10.53;;;;;;;;;;6114078;29;20299;-61
2024/02/23 06:12:07;;;;;;;24.13;11.60;;;;;;;;;;6136387;29;20291;-62
2024/02/23 06:15:12;;;;;;;21.00;11.53;;;;;;;;;;6137937;29;20299;-62
2024/02/23 06:18:15;;;;;;;17.10;9.90;;;;;;;;;;6137952;29;20311;-61
2024/02/23 06:21:20;;;;;;;14.57;9.27;;;;;;;;;;6138553;29;20579;-61
2024/02/23 06:24:26;;;;;;;20.70;9.97;;;;;;;;;;6137917;29;20382;-62
2024/02/23 06:27:30;;;;;;;25.27;12.82;;;;;;;;;;6137923;29;20594;-62
2024/02/23 06:30:34;;;;;;;24.80;12.88;;;;;;;;;;6138652;29;20319;-62
2024/02/23 06:33:37;;;;;;;31.70;14.67;;;;;;;;;;6137783;29;20299;-62
2024/02/23 06:36:41;;;;;;;25.53;13.13;;;;;;;;;;6138119;29;20315;-62
2024/02/23 06:39:51;;;;;;;23.23;13.23;;;;;;;;;;6137788;29;20471;-62
2024/02/23 06:42:55;;;;;;;24.60;13.70;;;;;;;;;;6138201;29;20306;-61
2024/02/23 06:45:58;;;;;;;26.17;14.23;;;;;;;;;;6138439;29;20314;-62
2024/02/23 06:49:02;;;;;;;27.47;13.93;;;;;;;;;;6137699;29;20311;-62
2024/02/23 06:52:07;;;;;;;28.80;15.07;;;;;;;;;;6138513;29;20602;-62
2024/02/23 06:55:12;;;;;;;28.00;13.20;;;;;;;;;;6123313;29;20495;-62
2024/02/23 06:58:16;;;;;;;25.53;13.17;;;;;;;;;;6114080;29;20296;-63
2024/02/23 07:01:21;;;;;;;23.07;13.23;;;;;;;;;;6114446;29;20299;-62
2024/02/23 07:04:26;;;;;;;21.07;11.57;;;;;;;;;;6112824;29;20300;-61
2024/02/23 07:07:32;;;;;;;23.83;12.93;;;;;;;;;;6096706;29;20302;-62
2024/02/23 07:10:38;;;;;;;22.95;12.77;;;;;;;;;;6123642;29;20295;-62
2024/02/23 07:13:44;;;;;;;22.27;12.77;;;;;;;;;;6137037;29;20262;-60
2024/02/23 07:16:49;;;;;;;25.43;13.00;;;;;;;;;;6138005;29;20296;-61
2024/02/23 07:19:53;;;;;;;20.97;12.23;;;;;;;;;;6136785;29;20296;-62
2024/02/23 07:22:56;;;;;;;18.85;12.30;;;;;;;;;;6141702;29;20478;-61
2024/02/23 07:26:02;;;;;;;21.13;10.87;;;;;;;;;;6141894;29;20247;-61
2024/02/23 07:29:06;;;;;;;16.47;11.10;;;;;;;;;;6142026;29;20310;-63
2024/02/23 07:32:10;;;;;;;18.27;10.83;;;;;;;;;;6142133;29;20316;-61
2024/02/23 07:35:14;;;;;;;15.90;10.23;;;;;;;;;;6141744;29;20595;-61
2024/02/23 07:38:19;;;;;;;15.47;9.57;;;;;;;;;;6141454;29;20299;-62
2024/02/23 07:41:24;;;;;;;13.77;9.13;;;;;;;;;;6141842;29;20295;-62
2024/02/23 07:44:28;;;;;;;12.23;8.57;;;;;;;;;;6141577;29;20294;-62
2024/02/23 07:47:33;;;;;;;13.60;8.50;;;;;;;;;;6141164;29;20299;-62
2024/02/23 07:50:37;;;;;;;11.07;8.07;;;;;;;;;;6141562;29;20295;-61
2024/02/23 07:53:41;;;;;;;9.87;7.80;;;;;;;;;;6138288;29;20294;-61
2024/02/23 07:56:47;;;;;;;9.80;7.57;;;;;;;;;;6117770;29;20336;-62
2024/02/23 07:59:51;;;;;;;13.00;8.47;;;;;;;;;;6116032;29;20291;-62
2024/02/23 08:02:56;;;;;;;10.17;7.70;;;;;;;;;;6117349;29;20302;-62
2024/02/23 08:06:00;;;;;;;10.97;8.27;;;;;;;;;;6117509;29;20304;-62
2024/02/23 08:09:07;;;;;;;13.10;8.10;;;;;;;;;;6117354;29;20296;-62
2024/02/23 08:12:13;;;;;;;13.33;9.70;;;;;;;;;;6139641;29;20587;-61
2024/02/23 08:15:18;;;;;;;16.97;10.47;;;;;;;;;;6140880;29;20351;-62
2024/02/23 08:18:22;;;;;;;19.23;11.17;;;;;;;;;;6140360;29;20302;-62
2024/02/23 08:21:29;;;;;;;16.10;10.47;;;;;;;;;;6140882;29;20299;-62
2024/02/23 08:24:32;;;;;;;13.77;9.30;;;;;;;;;;6140541;29;20299;-62
2024/02/23 08:27:37;;;;;;;15.57;9.83;;;;;;;;;;6140803;29;20303;-62
2024/02/23 08:30:41;;;;;;;18.55;10.90;;;;;;;;;;6141117;29;20299;-62
2024/02/23 08:33:46;;;;;;;17.13;10.67;;;;;;;;;;6139020;29;20306;-62
2024/02/23 08:36:51;;;;;;;17.98;11.35;;;;;;;;;;6140910;29;20299;-62
2024/02/23 08:39:55;;;;;;;18.33;9.90;;;;;;;;;;6140009;29;20299;-62
2024/02/23 08:43:00;;;;;;;23.40;14.45;;;;;;;;;;6138974;29;20462;-62
2024/02/23 08:46:04;;;;;;;16.33;10.03;;;;;;;;;;6140787;29;20299;-62
2024/02/23 08:49:12;;;;;;;10.35;7.93;;;;;;;;;;6139217;29;20291;-62
2024/02/23 08:52:16;;;;;;;13.33;8.10;;;;;;;;;;6140379;29;20299;-62
2024/02/23 08:55:21;;;;;;;8.95;7.32;;;;;;;;;;6124252;29;20300;-62
2024/02/23 08:58:26;;;;;;;9.30;8.00;;;;;;;;;;6116048;29;20300;-62
2024/02/23 09:01:30;;;;;;;10.35;6.97;;;;;;;;;;6116481;29;20319;-62
2024/02/23 09:04:34;;;;;;;7.75;6.78;;;;;;;;;;6115820;29;20317;-62
2024/02/23 09:07:38;;;;;;;9.48;6.70;;;;;;;;;;6115707;29;20295;-62
2024/02/23 09:10:42;;;;;;;8.27;7.05;;;;;;;;;;6126583;29;20291;-62
2024/02/23 09:13:47;;;;;;;8.43;7.40;;;;;;;;;;6139567;29;20328;-62
2024/02/23 09:16:51;;;;;;;8.80;7.97;;;;;;;;;;6138944;29;20295;-63
2024/02/23 09:19:55;;;;;;;10.52;8.07;;;;;;;;;;6139229;29;20507;-62
2024/02/23 09:22:59;;;;;;;11.93;8.23;;;;;;;;;;6139127;29;20598;-62
2024/02/23 09:26:03;;;;;;;10.07;8.20;;;;;;;;;;6139236;29;20247;-62
2024/02/23 09:29:08;;;;;;;10.00;8.15;;;;;;;;;;6138389;29;20303;-62
2024/02/23 09:32:13;;;;;;;12.07;8.38;;;;;;;;;;6139501;29;20469;-62
2024/02/23 09:35:17;;;;;;;10.15;8.18;;;;;;;;;;6138887;29;20303;-62
2024/02/23 09:38:23;;;;;;;11.30;7.70;;;;;;;;;;6139025;29;20492;-62
2024/02/23 09:41:27;;;;;;;11.93;8.13;;;;;;;;;;6139588;29;20294;-62
2024/02/23 09:44:34;;;;;;;9.60;7.82;;;;;;;;;;6138667;29;20298;-62
2024/02/23 09:47:38;;;;;;;9.57;7.97;;;;;;;;;;6138351;29;20306;-63
2024/02/23 09:50:43;;;;;;;8.43;7.57;;;;;;;;;;6139414;29;20612;-62
2024/02/23 09:53:47;;;;;;;13.63;7.72;;;;;;;;;;6135432;29;20312;-62
2024/02/23 09:56:51;;;;;;;10.73;7.28;;;;;;;;;;6114755;29;20308;-61
2024/02/23 09:59:57;;;;;;;8.57;7.22;;;;;;;;;;6114931;29;20304;-60
2024/02/23 10:03:01;;;;;;;9.60;6.80;;;;;;;;;;6115068;29;20303;-61
2024/02/23 10:06:05;;;;;;;7.88;6.47;;;;;;;;;;6115537;29;20316;-61
2024/02/23 10:09:11;;;;;;;10.00;6.60;;;;;;;;;;6115250;29;20308;-62
2024/02/23 10:12:17;;;;;;;11.60;6.65;;;;;;;;;;6137960;29;20299;-62
2024/02/23 10:15:23;;;;;;;9.30;6.70;;;;;;;;;;6138354;29;20303;-62
2024/02/23 10:18:27;;;;;;;8.35;6.32;;;;;;;;;;6138104;29;20298;-62
2024/02/23 10:21:31;;;;;;;6.90;5.90;;;;;;;;;;6138671;29;20400;-62
2024/02/23 10:24:35;;;;;;;9.40;5.93;;;;;;;;;;6137828;29;20286;-62
2024/02/23 10:27:38;;;;;;;7.85;5.72;;;;;;;;;;6138072;29;20306;-63
2024/02/23 10:30:44;;;;;;;6.85;5.65;;;;;;;;;;6138474;29;20453;-62
2024/02/23 10:33:50;;;;;;;6.00;5.30;;;;;;;;;;6138348;29;20298;-64
2024/02/23 10:36:54;;;;;;;7.75;5.50;;;;;;;;;;6138563;29;20351;-62
2024/02/23 10:39:59;;;;;;;6.85;5.30;;;;;;;;;;6137942;29;20441;-62
2024/02/23 10:43:04;;;;;;;5.32;4.68;;;;;;;;;;6137474;29;20295;-62
2024/02/23 10:46:12;;;;;;;5.35;4.63;;;;;;;;;;6138426;29;20578;-63
2024/02/23 10:49:19;;;;;;;4.53;4.15;;;;;;;;;;6138111;29;20298;-62
2024/02/23 10:52:26;;;;;;;3.72;3.42;;;;;;;;;;6138905;29;20318;-63
2024/02/23 10:55:31;;;;;;;3.55;3.20;;;;;;;;;;6121996;29;20319;-62
2024/02/23 10:58:35;;;;;;;2.63;2.53;;;;;;;;;;6119257;29;20315;-62
2024/02/23 11:01:40;;;;;;;5.90;2.20;;;;;;;;;;6119314;29;20685;-62
2024/02/23 11:04:50;;;;;;;2.65;1.70;;;;;;;;;;6119262;29;20460;-62
2024/02/23 11:07:57;;;;;;;1.52;1.42;;;;;;;;;;6117091;29;20367;-63
2024/02/23 11:11:08;;;;;;;1.70;1.60;;;;;;;;;;6131433;29;20251;-63
2024/02/23 11:14:13;;;;;;;1.90;1.80;;;;;;;;;;6142320;29;20459;-62
2024/02/23 11:17:21;;;;;;;1.33;1.30;;;;;;;;;;6141778;29;20311;-62
2024/02/23 11:20:35;;;;;;;1.17;1.17;;;;;;;;;;6141964;29;20307;-63
2024/02/23 11:23:43;;;;;;;1.30;1.20;;;;;;;;;;6141501;29;20300;-63
2024/02/23 11:26:49;;;;;;;1.85;1.30;;;;;;;;;;6142545;29;20299;-63
2024/02/23 11:30:01;;;;;;;1.10;1.10;;;;;;;;;;6141310;29;20360;-63
2024/02/23 11:33:09;;;;;;;1.58;1.48;;;;;;;;;;6141394;29;20371;-62
2024/02/23 11:36:13;;;;;;;1.30;1.02;;;;;;;;;;6142568;29;20303;-61
2024/02/23 11:39:17;;;;;;;2.13;1.20;;;;;;;;;;6140787;29;20302;-62
2024/02/23 11:42:21;;;;;;;3.05;1.65;;;;;;;;;;6142043;29;20291;-62
2024/02/23 11:45:25;;;;;;;9.20;2.28;;;;;;;;;;6140846;29;20556;-62
2024/02/23 11:48:30;;;;;;;4.05;2.45;;;;;;;;;;6141038;29;20295;-61
2024/02/23 11:51:34;;;;;;;4.00;2.50;;;;;;;;;;6141946;29;20303;-62
2024/02/23 11:54:38;;;;;;;4.93;2.30;;;;;;;;;;6131245;29;20296;-62
2024/02/23 11:57:42;;;;;;;2.30;1.40;;;;;;;;;;6116863;29;20296;-62
2024/02/23 12:00:52;;;;;;;2.20;1.70;;;;;;;;;;6117969;29;20379;-62
2024/02/23 12:03:57;;;;;;;2.53;2.03;;;;;;;;;;6117547;29;20299;-62
2024/02/23 12:07:04;;;;;;;4.95;1.70;;;;;;;;;;6117093;29;20308;-62
2024/02/23 12:10:10;;;;;;;2.67;1.50;;;;;;;;;;6123104;29;20299;-62
2024/02/23 12:13:14;;;;;;;3.28;1.45;;;;;;;;;;6140991;29;20296;-62
2024/02/23 12:16:18;;;;;;;2.53;1.70;;;;;;;;;;6141361;29;20367;-62
2024/02/23 12:19:23;;;;;;;4.50;1.77;;;;;;;;;;6140266;29;20295;-62
2024/02/23 12:22:28;;;;;;;1.52;1.20;;;;;;;;;;6140668;29;20323;-63
2024/02/23 12:25:33;;;;;;;4.63;1.42;;;;;;;;;;6141180;29;20287;-62
2024/02/23 12:28:37;;;;;;;3.60;1.25;;;;;;;;;;6140336;29;20295;-62
2024/02/23 12:31:42;;;;;;;6.78;1.75;;;;;;;;;;6141067;29;20298;-62
2024/02/23 12:34:48;;;;;;;1.23;1.20;;;;;;;;;;6139682;29;20311;-62
2024/02/23 12:37:52;;;;;;;1.60;1.23;;;;;;;;;;6139719;29;20536;-63
2024/02/23 12:40:56;;;;;;;2.75;1.20;;;;;;;;;;6140623;29;20287;-62
2024/02/23 12:44:00;;;;;;;1.58;1.45;;;;;;;;;;6139650;29;20304;-62
2024/02/23 12:47:04;;;;;;;4.30;1.40;;;;;;;;;;6140116;29;20446;-62
2024/02/23 12:50:11;;;;;;;1.70;1.60;;;;;;;;;;6140060;29;20295;-62
2024/02/23 12:53:32;;;;;;;4.22;1.77;;;;;;;;;;6140170;29;20311;-62
2024/02/23 12:56:36;;;;;;;3.95;1.60;;;;;;;;;;6099256;29;20324;-62
2024/02/23 12:59:40;;;;;;;3.75;1.50;;;;;;;;;;6092369;29;20304;-61
2024/02/23 13:02:44;;;;;;;3.10;1.75;;;;;;;;;;6092636;29;20296;-62
2024/02/23 13:05:50;;;;;;;1.33;1.23;;;;;;;;;;6092913;29;20412;-61
2024/02/23 13:08:54;;;;;;;9.43;1.70;;;;;;;;;;6092360;29;20304;-62
2024/02/23 13:11:58;;;;;;;1.95;1.40;;;;;;;;;;6132832;29;20298;-62
2024/02/23 13:15:02;;;;;;;5.90;1.73;;;;;;;;;;6138654;29;20299;-62
2024/02/23 13:18:06;;;;;;;3.83;1.42;;;;;;;;;;6138605;29;20315;-62
2024/02/23 13:21:12;;;;;;;4.63;1.40;;;;;;;;;;6139648;29;20294;-62
2024/02/23 13:24:16;;;;;;;2.28;1.38;;;;;;;;;;6138774;29;20305;-62
2024/02/23 13:27:20;;;;;;;1.60;1.50;;;;;;;;;;6139875;29;20299;-62
2024/02/23 13:30:26;;;;;;;3.95;1.55;;;;;;;;;;6138510;29;20299;-64
2024/02/23 13:33:30;;;;;;;4.03;1.65;;;;;;;;;;6138457;29;20303;-62
2024/02/23 13:36:35;;;;;;;2.35;1.45;;;;;;;;;;6139196;29;20294;-62
2024/02/23 13:39:39;;;;;;;3.20;1.60;;;;;;;;;;6138395;29;20302;-62
2024/02/23 13:42:45;;;;;;;6.07;1.60;;;;;;;;;;6138461;29;20318;-62
2024/02/23 13:45:51;;;;;;;4.78;1.35;;;;;;;;;;6139012;29;20493;-62
2024/02/23 13:49:03;;;;;;;7.50;1.63;;;;;;;;;;6138945;29;20299;-62
2024/02/23 13:52:09;;;;;;;4.70;1.30;;;;;;;;;;6139564;29;20302;-62
2024/02/23 13:55:13;;;;;;;4.38;1.30;;;;;;;;;;6124432;29;20360;-61
2024/02/23 13:58:17;;;;;;;5.28;1.38;;;;;;;;;;6115041;29;20291;-61
2024/02/23 14:01:21;;;;;;;2.92;1.40;;;;;;;;;;6114989;29;20549;-61
2024/02/23 14:04:25;;;;;;;4.88;1.27;;;;;;;;;;6114388;29;20299;-61
2024/02/23 14:07:31;;;;;;;3.17;1.63;;;;;;;;;;6114304;29;20587;-62
2024/02/23 14:10:35;;;;;;;7.82;2.08;;;;;;;;;;6124094;29;20315;-61
2024/02/23 14:13:39;;;;;;;4.38;2.00;;;;;;;;;;6137608;29;20485;-61
2024/02/23 14:16:42;;;;;;;3.95;1.27;;;;;;;;;;6138647;29;20631;-62
2024/02/23 14:19:46;;;;;;;3.85;1.30;;;;;;;;;;6138262;29;20294;-62
2024/02/23 14:22:52;;;;;;;3.95;1.30;;;;;;;;;;6137320;29;20579;-62
2024/02/23 14:25:56;;;;;;;1.77;1.10;;;;;;;;;;6138454;29;20252;-62
2024/02/23 14:29:00;;;;;;;5.03;2.53;;;;;;;;;;6138110;29;20551;-62
2024/02/23 14:32:05;;;;;;;2.17;1.40;;;;;;;;;;6138020;29;20247;-62
2024/02/23 14:35:10;;;;;;;3.58;1.38;;;;;;;;;;6138236;29;20339;-62
2024/02/23 14:38:15;;;;;;;3.53;1.65;;;;;;;;;;6137418;29;20317;-62
2024/02/23 14:41:19;;;;;;;4.57;1.60;;;;;;;;;;6138318;29;20315;-62
2024/02/23 14:44:23;;;;;;;1.92;1.33;;;;;;;;;;6137745;29;20294;-62
2024/02/23 14:47:27;;;;;;;3.88;1.50;;;;;;;;;;6136967;29;20406;-63
2024/02/23 14:50:41;;;;;;;4.63;1.63;;;;;;;;;;6138265;29;20303;-62
2024/02/23 14:53:46;;;;;;;4.10;1.55;;;;;;;;;;6134614;29;20295;-62
2024/02/23 14:56:50;;;;;;;5.65;1.75;;;;;;;;;;6114525;29;20295;-62
2024/02/23 14:59:54;;;;;;;3.47;1.50;;;;;;;;;;6114230;29;20308;-62
2024/02/23 15:02:58;;;;;;;1.90;1.55;;;;;;;;;;6114191;29;20308;-62
2024/02/23 15:06:01;;;;;;;6.10;1.40;;;;;;;;;;6114535;29;20308;-62
2024/02/23 15:09:07;;;;;;;4.55;1.83;;;;;;;;;;6113811;29;20347;-62
2024/02/23 15:12:11;;;;;;;3.10;1.52;;;;;;;;;;6136266;29;20316;-62
2024/02/23 15:15:15;;;;;;;5.80;1.50;;;;;;;;;;6137486;29;20307;-61
2024/02/23 15:18:19;;;;;;;9.88;2.13;;;;;;;;;;6137289;29;20298;-63
2024/02/23 15:21:23;;;;;;;6.97;1.30;;;;;;;;;;6137723;29;20307;-62
2024/02/23 15:24:28;;;;;;;3.53;1.20;;;;;;;;;;6137563;29;20533;-61
2024/02/23 15:27:33;;;;;;;3.90;1.25;;;;;;;;;;6137704;29;20528;-61
2024/02/23 15:30:37;;;;;;;4.25;1.40;;;;;;;;;;6138233;29;20300;-62
2024/02/23 15:33:41;;;;;;;3.30;1.20;;;;;;;;;;6137548;29;20294;-62
2024/02/23 15:36:45;;;;;;;1.80;1.42;;;;;;;;;;6138014;29;20295;-61
2024/02/23 15:39:50;;;;;;;3.08;1.30;;;;;;;;;;6137459;29;20581;-62
2024/02/23 15:42:54;;;;;;;2.38;1.23;;;;;;;;;;6139863;29;20310;-62
2024/02/23 15:45:58;;;;;;;6.38;1.35;;;;;;;;;;6142043;29;20319;-62
2024/02/23 15:49:02;;;;;;;5.88;1.63;;;;;;;;;;6140897;29;20591;-62
2024/02/23 15:52:25;;;;;;;6.50;1.60;;;;;;;;;;6142110;29;20299;-62
2024/02/23 15:55:31;;;;;;;4.25;1.70;;;;;;;;;;6124497;29;20584;-62
2024/02/23 15:58:35;;;;;;;6.78;1.63;;;;;;;;;;6117606;29;20319;-62
2024/02/23 16:01:39;;;;;;;12.85;1.70;;;;;;;;;;6117832;29;20576;-63
2024/02/23 16:04:43;;;;;;;3.85;1.70;;;;;;;;;;6117406;29;20295;-62
2024/02/23 16:07:48;;;;;;;7.15;1.60;;;;;;;;;;6117515;29;20311;-63
2024/02/23 16:10:53;;;;;;;2.42;1.67;;;;;;;;;;6128208;29;20563;-63
2024/02/23 16:13:57;;;;;;;9.70;1.85;;;;;;;;;;6140479;29;20290;-63
2024/02/23 16:17:02;;;;;;;3.25;1.40;;;;;;;;;;6144859;29;20243;-63
2024/02/23 16:20:08;;;;;;;4.43;1.63;;;;;;;;;;6140649;29;20544;-63
2024/02/23 16:23:12;;;;;;;1.58;1.50;;;;;;;;;;6140683;29;20307;-63
2024/02/23 16:26:17;;;;;;;5.63;1.52;;;;;;;;;;6141124;29;20306;-63
2024/02/23 16:29:21;;;;;;;2.75;1.70;;;;;;;;;;6140258;29;20300;-61
2024/02/23 16:32:25;;;;;;;5.22;1.88;;;;;;;;;;6140683;29;20302;-61
2024/02/23 16:35:29;;;;;;;3.72;1.90;;;;;;;;;;6138366;29;20611;-61
2024/02/23 16:38:34;;;;;;;3.28;1.42;;;;;;;;;;6138656;29;20302;-62
2024/02/23 16:41:39;;;;;;;4.78;1.58;;;;;;;;;;6139061;29;20299;-62
2024/02/23 16:44:43;;;;;;;6.20;1.90;;;;;;;;;;6136581;29;20299;-62
2024/02/23 16:47:47;;;;;;;4.43;2.00;;;;;;;;;;6137998;29;20498;-62
2024/02/23 16:50:51;;;;;;;4.60;1.70;;;;;;;;;;6138901;29;20298;-62
2024/02/23 16:53:56;;;;;;;6.65;2.80;;;;;;;;;;6133348;29;20292;-62
2024/02/23 16:57:01;;;;;;;8.48;2.33;;;;;;;;;;6115473;29;20300;-63
2024/02/23 17:00:06;;;;;;;6.50;2.65;;;;;;;;;;6114686;29;20295;-63
2024/02/23 17:03:10;;;;;;;7.53;2.60;;;;;;;;;;6114462;29;20303;-64
2024/02/23 17:06:14;;;;;;;8.82;2.95;;;;;;;;;;6114828;29;20410;-63
2024/02/23 17:09:18;;;;;;;9.25;3.13;;;;;;;;;;6114378;29;20588;-62
2024/02/23 17:12:24;;;;;;;5.45;3.13;;;;;;;;;;6137693;29;20299;-63
2024/02/23 17:15:28;;;;;;;3.73;2.40;;;;;;;;;;6137413;29;20307;-61
2024/02/23 17:18:35;;;;;;;6.65;2.38;;;;;;;;;;6137700;29;20295;-61
2024/02/23 17:21:39;;;;;;;7.38;2.13;;;;;;;;;;6138071;29;20330;-61
2024/02/23 17:24:43;;;;;;;12.75;2.72;;;;;;;;;;6137568;29;20295;-62
2024/02/23 17:27:49;;;;;;;3.72;1.73;;;;;;;;;;6136987;29;20299;-62
2024/02/23 17:30:53;;;;;;;5.82;1.83;;;;;;;;;;6137660;29;20478;-62
2024/02/23 17:33:57;;;;;;;5.65;2.03;;;;;;;;;;6137299;29;20478;-62
2024/02/23 17:37:02;;;;;;;3.03;1.55;;;;;;;;;;6137741;29;20376;-62
2024/02/23 17:40:07;;;;;;;2.80;2.00;;;;;;;;;;6136812;29;20312;-62
2024/02/23 17:43:12;;;;;;;5.95;2.10;;;;;;;;;;6137163;29;20295;-62
2024/02/23 17:46:16;;;;;;;10.00;1.75;;;;;;;;;;6137430;29;20299;-62
2024/02/23 17:49:20;;;;;;;1.80;1.65;;;;;;;;;;6137424;29;20315;-62
2024/02/23 17:52:24;;;;;;;3.72;1.77;;;;;;;;;;6137325;29;20294;-63
2024/02/23 17:55:30;;;;;;;3.95;1.50;;;;;;;;;;6119823;29;20304;-62
2024/02/23 17:58:36;;;;;;;4.40;1.83;;;;;;;;;;6103533;29;20303;-63
2024/02/23 18:01:40;;;;;;;5.63;2.00;;;;;;;;;;6112956;29;20576;-63
2024/02/23 18:04:46;;;;;;;3.10;1.90;;;;;;;;;;6112381;29;20320;-63
2024/02/23 18:07:50;;;;;;;2.67;1.75;;;;;;;;;;6112108;29;20300;-65
2024/02/23 18:10:54;;;;;;;3.90;1.50;;;;;;;;;;6125008;29;20480;-64
2024/02/23 18:13:59;;;;;;;2.90;1.67;;;;;;;;;;6136765;29;20310;-63